createdAt,value
2022-10-06T00:00:02.274Z,14.23
2022-10-06T00:00:34.943Z,14.22
2022-10-06T00:01:11.473Z,14.24
2022-10-06T00:01:43.424Z,14.20
2022-10-06T00:02:15.370Z,14.21
2022-10-06T00:02:47.438Z,14.19
2022-10-06T00:03:23.068Z,14.18
2022-10-06T00:03:54.956Z,14.22
2022-10-06T00:04:26.810Z,14.13
2022-10-06T00:04:58.682Z,14.17
2022-10-06T00:05:31.204Z,14.22
2022-10-06T00:06:05.157Z,14.23
2022-10-06T00:06:37.025Z,14.22
2022-10-06T00:07:09.050Z,14.17
2022-10-06T00:07:40.929Z,14.14
2022-10-06T00:08:12.802Z,14.05
2022-10-06T00:08:46.896Z,14.10
2022-10-06T00:09:18.771Z,14.12
2022-10-06T00:09:50.632Z,14.12
2022-10-06T00:10:22.547Z,14.14
2022-10-06T00:10:58.312Z,14.16
2022-10-06T00:11:30.190Z,14.12
2022-10-06T00:12:02.350Z,14.15
2022-10-06T00:12:46.814Z,14.09
2022-10-06T00:13:18.756Z,14.10
2022-10-06T00:13:50.844Z,14.09
2022-10-06T00:14:22.754Z,14.07
2022-10-06T00:14:54.643Z,14.10
2022-10-06T00:15:31.589Z,14.11
2022-10-06T00:16:10.257Z,14.16
2022-10-06T00:16:42.240Z,14.09
2022-10-06T00:17:14.123Z,14.05
2022-10-06T00:17:46.016Z,14.08
2022-10-06T00:18:17.988Z,14.04
2022-10-06T00:18:50.144Z,14.09
2022-10-06T00:19:22.022Z,14.11
2022-10-06T00:19:53.915Z,14.11
2022-10-06T00:20:27.316Z,14.08
2022-10-06T00:21:01.512Z,14.12
2022-10-06T00:21:34.088Z,14.06
2022-10-06T00:22:05.990Z,14.07
2022-10-06T00:22:43.851Z,14.06
2022-10-06T00:23:16.956Z,14.00
2022-10-06T00:23:48.819Z,13.95
2022-10-06T00:24:20.790Z,13.89
2022-10-06T00:24:52.668Z,13.93
2022-10-06T00:25:28.343Z,13.94
2022-10-06T00:26:00.273Z,13.95
2022-10-06T00:26:32.484Z,13.96
2022-10-06T00:27:04.477Z,14.01
2022-10-06T00:27:41.035Z,13.95
2022-10-06T00:28:14.165Z,13.93
2022-10-06T00:28:50.242Z,13.96
2022-10-06T00:29:22.253Z,13.97
2022-10-06T00:29:54.111Z,13.98
2022-10-06T00:30:29.670Z,13.93
2022-10-06T00:31:03.082Z,13.91
2022-10-06T00:31:35.084Z,13.85
2022-10-06T00:32:07.715Z,13.85
2022-10-06T00:32:40.182Z,13.89
2022-10-06T00:33:16.031Z,13.89
2022-10-06T00:33:50.182Z,13.94
2022-10-06T00:34:22.173Z,13.93
2022-10-06T00:34:54.141Z,13.95
2022-10-06T00:35:29.751Z,13.94
2022-10-06T00:36:01.698Z,13.90
2022-10-06T00:36:33.626Z,13.91
2022-10-06T00:37:05.522Z,13.94
2022-10-06T00:37:38.372Z,13.99
2022-10-06T00:38:13.193Z,13.90
2022-10-06T00:38:45.144Z,13.84
2022-10-06T00:39:17.081Z,13.80
2022-10-06T00:39:49.008Z,13.80
2022-10-06T00:40:22.628Z,13.85
2022-10-06T00:40:55.836Z,13.84
2022-10-06T00:41:27.808Z,13.79
2022-10-06T00:42:00.158Z,13.85
2022-10-06T00:42:32.977Z,13.88
2022-10-06T00:43:06.562Z,13.95
2022-10-06T00:43:58.173Z,13.93
2022-10-06T00:44:30.166Z,13.89
2022-10-06T00:45:06.199Z,13.89
2022-10-06T00:45:46.623Z,13.95
2022-10-06T00:46:21.591Z,13.94
2022-10-06T00:46:54.383Z,13.91
2022-10-06T00:47:31.059Z,13.95
2022-10-06T00:48:13.749Z,13.95
2022-10-06T00:48:51.431Z,13.93
2022-10-06T00:49:35.746Z,13.89
2022-10-06T00:50:11.799Z,13.88
2022-10-06T00:50:44.434Z,13.88
2022-10-06T00:51:16.724Z,13.78
2022-10-06T00:52:00.455Z,13.81
2022-10-06T00:52:32.614Z,13.78
2022-10-06T00:53:06.223Z,13.74
2022-10-06T00:53:38.315Z,13.75
2022-10-06T00:54:10.682Z,13.70
2022-10-06T00:54:42.952Z,13.71
2022-10-06T00:55:15.391Z,13.64
2022-10-06T00:55:47.319Z,13.56
2022-10-06T00:56:19.278Z,13.60
2022-10-06T00:56:51.434Z,13.59
2022-10-06T00:57:23.475Z,13.56
2022-10-06T00:57:55.894Z,13.54
2022-10-06T00:58:28.063Z,13.48
2022-10-06T00:59:00.221Z,13.50
2022-10-06T00:59:32.578Z,13.53
2022-10-06T01:00:08.124Z,13.55
2022-10-06T01:00:43.344Z,13.55
2022-10-06T01:01:15.401Z,13.56
2022-10-06T01:02:00.154Z,13.51
2022-10-06T01:02:47.934Z,13.50
2022-10-06T01:03:34.750Z,13.50
2022-10-06T01:04:11.557Z,13.54
2022-10-06T01:04:48.387Z,13.58
2022-10-06T01:05:34.606Z,13.62
2022-10-06T01:06:07.714Z,13.64
2022-10-06T01:06:50.919Z,13.66
2022-10-06T01:07:27.828Z,13.67
2022-10-06T01:07:59.968Z,13.65
2022-10-06T01:08:33.588Z,13.68
2022-10-06T01:09:05.599Z,13.66
2022-10-06T01:09:38.691Z,13.68
2022-10-06T01:10:10.636Z,13.59
2022-10-06T01:10:43.151Z,13.57
2022-10-06T01:11:15.159Z,13.62
2022-10-06T01:11:51.248Z,13.61
2022-10-06T01:12:24.866Z,13.64
2022-10-06T01:12:57.265Z,13.64
2022-10-06T01:13:30.830Z,13.64
2022-10-06T01:14:02.701Z,13.64
2022-10-06T01:14:37.018Z,13.65
2022-10-06T01:15:09.773Z,13.66
2022-10-06T01:15:51.962Z,13.67
2022-10-06T01:16:27.138Z,13.69
2022-10-06T01:17:23.718Z,13.72
2022-10-06T01:18:04.826Z,13.68
2022-10-06T01:18:40.461Z,13.74
2022-10-06T01:19:33.047Z,13.65
2022-10-06T01:20:09.231Z,13.64
2022-10-06T01:20:55.731Z,13.64
2022-10-06T01:21:36.796Z,13.63
2022-10-06T01:22:10.395Z,13.60
2022-10-06T01:22:47.087Z,13.57
2022-10-06T01:23:19.804Z,13.54
2022-10-06T01:23:53.028Z,13.54
2022-10-06T01:24:24.969Z,13.56
2022-10-06T01:24:57.625Z,13.53
2022-10-06T01:25:29.704Z,13.52
2022-10-06T01:26:07.394Z,13.45
2022-10-06T01:26:45.485Z,13.44
2022-10-06T01:27:18.777Z,13.45
2022-10-06T01:27:56.182Z,13.47
2022-10-06T01:28:29.019Z,13.42
2022-10-06T01:29:01.371Z,13.42
2022-10-06T01:29:34.241Z,13.48
2022-10-06T01:30:09.938Z,13.49
2022-10-06T01:30:46.349Z,13.49
2022-10-06T01:31:18.486Z,13.33
2022-10-06T01:31:50.404Z,13.35
2022-10-06T01:32:24.123Z,13.41
2022-10-06T01:32:56.523Z,13.38
2022-10-06T01:33:29.953Z,13.41
2022-10-06T01:34:01.831Z,13.39
2022-10-06T01:34:34.004Z,13.41
2022-10-06T01:35:08.523Z,13.40
2022-10-06T01:35:40.529Z,13.41
2022-10-06T01:36:12.406Z,13.35
2022-10-06T01:36:44.349Z,13.33
2022-10-06T01:37:16.641Z,13.29
2022-10-06T01:37:48.575Z,13.28
2022-10-06T01:38:22.002Z,13.29
2022-10-06T01:38:53.922Z,13.27
2022-10-06T01:39:25.782Z,13.28
2022-10-06T01:39:57.707Z,13.21
2022-10-06T01:40:29.581Z,13.25
2022-10-06T01:41:01.497Z,13.15
2022-10-06T01:41:34.405Z,13.19
2022-10-06T01:42:06.446Z,13.15
2022-10-06T01:42:38.491Z,13.17
2022-10-06T01:43:10.770Z,13.19
2022-10-06T01:43:42.683Z,13.13
2022-10-06T01:44:15.129Z,13.14
2022-10-06T01:44:47.038Z,13.13
2022-10-06T01:45:18.937Z,13.12
2022-10-06T01:45:56.100Z,13.07
2022-10-06T01:46:30.217Z,13.02
2022-10-06T01:47:06.116Z,13.03
2022-10-06T01:47:38.336Z,13.02
2022-10-06T01:48:10.207Z,12.99
2022-10-06T01:48:42.123Z,12.95
2022-10-06T01:49:13.988Z,13.03
2022-10-06T01:49:45.862Z,13.05
2022-10-06T01:50:17.805Z,13.04
2022-10-06T01:50:50.260Z,13.05
2022-10-06T01:51:22.151Z,13.07
2022-10-06T01:51:54.332Z,13.07
2022-10-06T01:52:26.865Z,12.95
2022-10-06T01:52:58.763Z,13.03
2022-10-06T01:53:30.635Z,12.97
2022-10-06T01:54:02.826Z,12.97
2022-10-06T01:54:34.710Z,12.93
2022-10-06T01:55:07.489Z,13.00
2022-10-06T01:55:39.369Z,13.02
2022-10-06T01:56:11.590Z,13.03
2022-10-06T01:56:43.543Z,13.01
2022-10-06T01:57:15.410Z,13.01
2022-10-06T01:57:47.333Z,12.98
2022-10-06T01:58:19.213Z,13.01
2022-10-06T01:58:51.107Z,12.99
2022-10-06T01:59:23.135Z,12.96
2022-10-06T01:59:55.202Z,12.98
2022-10-06T02:00:27.106Z,13.02
2022-10-06T02:01:04.480Z,13.05
2022-10-06T02:01:36.650Z,13.03
2022-10-06T02:02:08.549Z,13.02
2022-10-06T02:02:41.496Z,13.01
2022-10-06T02:03:13.468Z,13.04
2022-10-06T02:03:45.381Z,12.98
2022-10-06T02:04:17.667Z,13.03
2022-10-06T02:04:49.667Z,12.95
2022-10-06T02:05:21.579Z,12.98
2022-10-06T02:05:57.295Z,12.99
2022-10-06T02:06:29.679Z,12.92
2022-10-06T02:07:01.645Z,12.92
2022-10-06T02:07:35.936Z,12.86
2022-10-06T02:08:09.620Z,12.76
2022-10-06T02:08:41.564Z,12.69
2022-10-06T02:09:14.107Z,12.69
2022-10-06T02:09:45.987Z,12.73
2022-10-06T02:10:17.941Z,12.68
2022-10-06T02:10:49.883Z,12.64
2022-10-06T02:11:21.829Z,12.61
2022-10-06T02:11:53.695Z,12.66
2022-10-06T02:12:25.657Z,12.72
2022-10-06T02:12:57.781Z,12.67
2022-10-06T02:13:30.425Z,12.65
2022-10-06T02:14:02.446Z,12.72
2022-10-06T02:14:34.817Z,12.75
2022-10-06T02:15:10.604Z,12.75
2022-10-06T02:15:42.656Z,12.74
2022-10-06T02:16:15.169Z,12.73
2022-10-06T02:16:47.063Z,12.77
2022-10-06T02:17:18.950Z,12.79
2022-10-06T02:17:50.854Z,12.75
2022-10-06T02:18:22.745Z,12.72
2022-10-06T02:18:54.887Z,12.69
2022-10-06T02:19:26.775Z,12.73
2022-10-06T02:19:58.843Z,12.69
2022-10-06T02:20:30.879Z,12.67
2022-10-06T02:21:03.582Z,12.65
2022-10-06T02:21:35.806Z,12.58
2022-10-06T02:22:07.723Z,12.61
2022-10-06T02:22:40.822Z,12.59
2022-10-06T02:23:12.876Z,12.55
2022-10-06T02:23:45.653Z,12.63
2022-10-06T02:24:17.541Z,12.63
2022-10-06T02:24:49.442Z,12.67
2022-10-06T02:25:21.346Z,12.66
2022-10-06T02:26:07.529Z,12.67
2022-10-06T02:26:39.648Z,12.65
2022-10-06T02:27:11.569Z,12.60
2022-10-06T02:27:44.028Z,12.55
2022-10-06T02:28:16.984Z,12.55
2022-10-06T02:28:52.023Z,12.56
2022-10-06T02:29:24.067Z,12.57
2022-10-06T02:29:56.076Z,12.54
2022-10-06T02:30:27.986Z,12.54
2022-10-06T02:31:08.536Z,12.59
2022-10-06T02:31:40.495Z,12.55
2022-10-06T02:32:12.382Z,12.53
2022-10-06T02:32:44.328Z,12.51
2022-10-06T02:33:17.061Z,12.52
2022-10-06T02:33:49.077Z,12.50
2022-10-06T02:34:21.047Z,12.45
2022-10-06T02:34:53.075Z,12.44
2022-10-06T02:35:25.554Z,12.48
2022-10-06T02:35:58.460Z,12.49
2022-10-06T02:36:30.312Z,12.44
2022-10-06T02:37:02.190Z,12.45
2022-10-06T02:37:34.669Z,12.44
2022-10-06T02:38:06.534Z,12.48
2022-10-06T02:38:39.394Z,12.50
2022-10-06T02:39:11.256Z,12.48
2022-10-06T02:39:43.299Z,12.50
2022-10-06T02:40:16.434Z,12.50
2022-10-06T02:40:48.601Z,12.51
2022-10-06T02:41:20.569Z,12.50
2022-10-06T02:41:52.477Z,12.53
2022-10-06T02:42:24.640Z,12.57
2022-10-06T02:42:56.585Z,12.60
2022-10-06T02:43:31.911Z,12.59
2022-10-06T02:44:03.929Z,12.52
2022-10-06T02:44:36.103Z,12.55
2022-10-06T02:45:08.948Z,12.58
2022-10-06T02:45:41.893Z,12.60
2022-10-06T02:46:15.223Z,12.57
2022-10-06T02:46:48.541Z,12.58
2022-10-06T02:47:22.292Z,12.59
2022-10-06T02:47:54.988Z,12.57
2022-10-06T02:48:29.379Z,12.57
2022-10-06T02:49:01.512Z,12.58
2022-10-06T02:49:33.387Z,12.51
2022-10-06T02:50:08.310Z,12.49
2022-10-06T02:50:40.224Z,12.50
2022-10-06T02:51:18.497Z,12.48
2022-10-06T02:51:50.410Z,12.51
2022-10-06T02:52:23.520Z,12.50
2022-10-06T02:52:55.433Z,12.53
2022-10-06T02:53:28.501Z,12.46
2022-10-06T02:54:00.562Z,12.39
2022-10-06T02:54:35.429Z,12.36
2022-10-06T02:55:08.913Z,12.39
2022-10-06T02:55:41.138Z,12.39
2022-10-06T02:56:17.387Z,12.39
2022-10-06T02:56:50.264Z,12.41
2022-10-06T02:57:22.151Z,12.40
2022-10-06T02:57:55.207Z,12.45
2022-10-06T02:58:31.326Z,12.44
2022-10-06T02:59:03.586Z,12.41
2022-10-06T02:59:38.706Z,12.39
2022-10-06T03:00:11.853Z,12.36
2022-10-06T03:00:43.756Z,12.36
2022-10-06T03:01:19.743Z,12.34
2022-10-06T03:01:52.710Z,12.29
2022-10-06T03:02:24.912Z,12.25
2022-10-06T03:02:56.941Z,12.21
2022-10-06T03:03:29.525Z,12.20
2022-10-06T03:04:01.552Z,12.25
2022-10-06T03:04:33.423Z,12.24
2022-10-06T03:05:05.586Z,12.21
2022-10-06T03:05:37.477Z,12.13
2022-10-06T03:06:25.238Z,12.14
2022-10-06T03:06:57.683Z,12.20
2022-10-06T03:07:29.765Z,12.25
2022-10-06T03:08:01.634Z,12.24
2022-10-06T03:08:33.853Z,12.22
2022-10-06T03:09:08.389Z,12.20
2022-10-06T03:09:40.317Z,12.17
2022-10-06T03:10:12.214Z,12.18
2022-10-06T03:10:44.116Z,12.24
2022-10-06T03:11:19.324Z,12.21
2022-10-06T03:11:51.272Z,12.21
2022-10-06T03:12:23.184Z,12.19
2022-10-06T03:12:55.707Z,12.10
2022-10-06T03:13:31.491Z,12.12
2022-10-06T03:14:04.429Z,12.14
2022-10-06T03:14:36.333Z,12.17
2022-10-06T03:15:08.634Z,12.17
2022-10-06T03:15:40.500Z,12.17
2022-10-06T03:16:18.631Z,12.16
2022-10-06T03:16:51.978Z,12.16
2022-10-06T03:17:23.927Z,12.15
2022-10-06T03:17:55.922Z,12.21
2022-10-06T03:18:28.296Z,12.16
2022-10-06T03:19:01.766Z,12.12
2022-10-06T03:19:33.641Z,12.12
2022-10-06T03:20:06.269Z,12.09
2022-10-06T03:20:38.137Z,12.11
2022-10-06T03:21:10.013Z,12.12
2022-10-06T03:21:44.160Z,12.12
2022-10-06T03:22:16.050Z,12.12
2022-10-06T03:22:47.956Z,12.07
2022-10-06T03:23:19.893Z,12.09
2022-10-06T03:23:53.707Z,12.11
2022-10-06T03:24:25.665Z,12.13
2022-10-06T03:24:57.846Z,12.11
2022-10-06T03:25:29.759Z,12.12
2022-10-06T03:26:01.803Z,12.09
2022-10-06T03:26:37.696Z,12.07
2022-10-06T03:27:09.731Z,12.09
2022-10-06T03:27:41.624Z,12.13
2022-10-06T03:28:13.522Z,12.11
2022-10-06T03:28:46.044Z,12.01
2022-10-06T03:29:18.078Z,11.97
2022-10-06T03:29:49.958Z,12.04
2022-10-06T03:30:21.868Z,12.03
2022-10-06T03:30:54.917Z,12.00
2022-10-06T03:31:27.733Z,12.06
2022-10-06T03:31:59.788Z,12.03
2022-10-06T03:32:31.636Z,12.03
2022-10-06T03:33:03.539Z,12.05
2022-10-06T03:33:35.838Z,12.05
2022-10-06T03:34:08.061Z,12.02
2022-10-06T03:34:39.925Z,12.01
2022-10-06T03:35:11.807Z,11.96
2022-10-06T03:35:43.934Z,11.97
2022-10-06T03:36:19.834Z,12.00
2022-10-06T03:36:51.832Z,11.88
2022-10-06T03:37:23.846Z,11.89
2022-10-06T03:37:56.031Z,11.95
2022-10-06T03:38:28.357Z,11.94
2022-10-06T03:39:01.831Z,11.93
2022-10-06T03:39:34.305Z,11.89
2022-10-06T03:40:06.873Z,11.91
2022-10-06T03:40:38.760Z,12.00
2022-10-06T03:41:27.818Z,12.04
2022-10-06T03:41:59.713Z,12.00
2022-10-06T03:42:32.278Z,11.95
2022-10-06T03:43:04.491Z,12.00
2022-10-06T03:43:37.492Z,12.01
2022-10-06T03:44:09.398Z,12.04
2022-10-06T03:44:41.480Z,12.08
2022-10-06T03:45:13.399Z,12.07
2022-10-06T03:45:57.157Z,12.14
2022-10-06T03:46:32.592Z,12.11
2022-10-06T03:47:04.624Z,12.10
2022-10-06T03:47:36.640Z,12.11
2022-10-06T03:48:08.563Z,12.12
2022-10-06T03:48:40.504Z,12.14
2022-10-06T03:49:12.391Z,12.15
2022-10-06T03:49:44.345Z,12.17
2022-10-06T03:50:17.127Z,12.14
2022-10-06T03:50:57.213Z,12.10
2022-10-06T03:51:38.929Z,12.13
2022-10-06T03:52:10.849Z,12.10
2022-10-06T03:52:42.713Z,12.03
2022-10-06T03:53:14.593Z,12.04
2022-10-06T03:53:50.224Z,12.06
2022-10-06T03:54:22.167Z,12.04
2022-10-06T03:54:54.538Z,12.00
2022-10-06T03:55:26.464Z,11.97
2022-10-06T03:56:16.514Z,11.99
2022-10-06T03:56:48.435Z,11.95
2022-10-06T03:57:20.352Z,11.99
2022-10-06T03:57:52.223Z,11.99
2022-10-06T03:58:24.138Z,11.97
2022-10-06T03:59:02.722Z,12.09
2022-10-06T03:59:34.844Z,12.07
2022-10-06T04:00:07.435Z,12.07
2022-10-06T04:00:39.403Z,12.06
2022-10-06T04:01:26.190Z,12.14
2022-10-06T04:01:58.482Z,12.16
2022-10-06T04:02:30.406Z,12.20
2022-10-06T04:03:02.406Z,12.23
2022-10-06T04:03:34.900Z,12.25
2022-10-06T04:04:07.708Z,12.23
2022-10-06T04:04:39.593Z,12.22
2022-10-06T04:05:11.807Z,12.21
2022-10-06T04:06:00.351Z,12.25
2022-10-06T04:06:37.040Z,12.24
2022-10-06T04:07:09.064Z,12.25
2022-10-06T04:07:40.971Z,12.25
2022-10-06T04:08:14.751Z,12.29
2022-10-06T04:08:49.350Z,12.24
2022-10-06T04:09:21.251Z,12.25
2022-10-06T04:09:53.231Z,12.20
2022-10-06T04:10:25.113Z,12.16
2022-10-06T04:11:11.246Z,12.20
2022-10-06T04:11:44.947Z,12.21
2022-10-06T04:12:16.835Z,12.01
2022-10-06T04:12:48.715Z,12.03
2022-10-06T04:13:22.346Z,12.11
2022-10-06T04:14:03.578Z,12.14
2022-10-06T04:14:35.663Z,12.15
2022-10-06T04:15:08.174Z,12.18
2022-10-06T04:15:40.055Z,12.14
2022-10-06T04:16:21.201Z,12.20
2022-10-06T04:16:53.359Z,12.12
2022-10-06T04:17:25.245Z,12.11
2022-10-06T04:17:57.114Z,12.10
2022-10-06T04:18:29.177Z,12.15
2022-10-06T04:19:04.514Z,12.19
2022-10-06T04:19:36.474Z,12.16
2022-10-06T04:20:08.641Z,12.08
2022-10-06T04:20:41.066Z,12.06
2022-10-06T04:21:13.612Z,12.08
2022-10-06T04:21:47.887Z,12.05
2022-10-06T04:22:19.905Z,11.97
2022-10-06T04:22:51.852Z,12.02
2022-10-06T04:23:23.848Z,11.98
2022-10-06T04:24:00.287Z,12.01
2022-10-06T04:24:32.266Z,11.95
2022-10-06T04:25:04.418Z,11.92
2022-10-06T04:25:36.388Z,11.93
2022-10-06T04:26:13.681Z,11.94
2022-10-06T04:26:48.886Z,11.95
2022-10-06T04:27:29.611Z,11.93
2022-10-06T04:28:01.718Z,11.95
2022-10-06T04:28:34.623Z,11.99
2022-10-06T04:29:07.332Z,11.98
2022-10-06T04:29:39.224Z,11.96
2022-10-06T04:30:12.202Z,11.97
2022-10-06T04:30:44.063Z,11.91
2022-10-06T04:31:25.878Z,11.90
2022-10-06T04:31:57.814Z,11.88
2022-10-06T04:32:29.868Z,11.83
2022-10-06T04:33:01.738Z,11.87
2022-10-06T04:33:34.273Z,11.87
2022-10-06T04:34:07.401Z,11.91
2022-10-06T04:34:39.332Z,11.88
2022-10-06T04:35:11.236Z,11.81
2022-10-06T04:35:43.188Z,11.78
2022-10-06T04:36:22.907Z,11.80
2022-10-06T04:36:54.860Z,11.78
2022-10-06T04:37:28.371Z,11.79
2022-10-06T04:38:00.246Z,11.80
2022-10-06T04:38:36.700Z,11.85
2022-10-06T04:39:10.838Z,11.78
2022-10-06T04:39:42.835Z,11.86
2022-10-06T04:40:14.841Z,11.86
2022-10-06T04:40:46.710Z,11.88
2022-10-06T04:41:20.466Z,11.86
2022-10-06T04:41:52.438Z,11.87
2022-10-06T04:42:24.647Z,11.86
2022-10-06T04:42:57.470Z,11.88
2022-10-06T04:43:29.491Z,11.90
2022-10-06T04:44:03.491Z,11.93
2022-10-06T04:44:35.424Z,11.91
2022-10-06T04:45:08.147Z,11.92
2022-10-06T04:45:40.132Z,11.91
2022-10-06T05:36:28.910Z,11.35
2022-10-06T05:37:01.125Z,11.40
2022-10-06T05:37:33.194Z,11.41
2022-10-06T05:38:05.313Z,11.40
2022-10-06T05:38:37.932Z,11.28
2022-10-06T05:39:09.955Z,11.38
2022-10-06T05:39:41.953Z,11.31
2022-10-06T05:40:14.025Z,11.32
2022-10-06T05:40:46.088Z,11.36
2022-10-06T05:41:20.360Z,11.35
2022-10-06T05:41:52.752Z,11.42
2022-10-06T05:42:28.816Z,11.45
2022-10-06T05:43:02.074Z,11.51
2022-10-06T05:43:35.556Z,11.55
2022-10-06T05:44:08.848Z,11.57
2022-10-06T05:44:40.907Z,11.52
2022-10-06T05:45:13.114Z,11.58
2022-10-06T05:45:56.851Z,11.56
2022-10-06T05:46:31.691Z,11.61
2022-10-06T05:47:03.679Z,11.63
2022-10-06T05:47:35.881Z,11.59
2022-10-06T05:48:09.173Z,11.56
2022-10-06T05:48:41.360Z,11.50
2022-10-06T05:49:13.638Z,11.51
2022-10-06T05:49:45.629Z,11.51
2022-10-06T05:50:19.514Z,11.47
2022-10-06T05:51:08.083Z,11.52
2022-10-06T05:51:40.683Z,11.47
2022-10-06T05:52:12.613Z,11.47
2022-10-06T05:52:44.567Z,11.55
2022-10-06T05:53:16.610Z,11.55
2022-10-06T05:53:48.938Z,11.53
2022-10-06T05:54:21.032Z,11.63
2022-10-06T05:54:53.177Z,11.58
2022-10-06T05:55:26.507Z,11.65
2022-10-06T05:56:13.200Z,11.61
2022-10-06T05:56:45.498Z,11.61
2022-10-06T05:57:17.567Z,11.66
2022-10-06T05:57:49.768Z,11.64
2022-10-06T05:58:21.816Z,11.62
2022-10-06T05:58:56.039Z,11.69
2022-10-06T05:59:28.005Z,11.65
2022-10-06T06:00:00.086Z,11.79
2022-10-06T06:00:32.128Z,11.81
2022-10-06T06:01:15.483Z,11.86
2022-10-06T06:01:47.527Z,11.95
2022-10-06T06:02:19.721Z,11.97
2022-10-06T06:02:51.947Z,11.97
2022-10-06T06:03:24.085Z,11.97
2022-10-06T06:04:03.027Z,12.03
2022-10-06T06:04:35.223Z,12.01
2022-10-06T06:05:07.421Z,12.05
2022-10-06T06:05:43.264Z,12.08
2022-10-06T06:06:35.155Z,12.11
2022-10-06T06:07:07.244Z,12.12
2022-10-06T06:07:39.325Z,12.13
2022-10-06T06:08:11.956Z,12.12
2022-10-06T06:08:44.352Z,12.09
2022-10-06T06:09:21.828Z,12.18
2022-10-06T06:09:53.942Z,12.15
2022-10-06T06:10:26.160Z,12.22
2022-10-06T06:11:07.785Z,12.21
2022-10-06T06:11:49.143Z,12.24
2022-10-06T06:12:21.165Z,12.25
2022-10-06T06:12:53.122Z,12.29
2022-10-06T06:13:25.230Z,12.28
2022-10-06T06:14:03.656Z,12.31
2022-10-06T06:14:54.222Z,12.23
2022-10-06T06:15:44.574Z,12.36
2022-10-06T06:16:16.680Z,12.36
2022-10-06T06:16:48.815Z,12.35
2022-10-06T06:17:20.925Z,12.36
2022-10-06T06:17:52.922Z,12.34
2022-10-06T06:18:24.941Z,12.41
2022-10-06T06:18:57.767Z,12.40
2022-10-06T06:19:29.916Z,12.42
2022-10-06T06:20:02.022Z,12.38
2022-10-06T06:20:34.121Z,12.43
2022-10-06T06:21:09.626Z,12.47
2022-10-06T06:21:41.813Z,12.37
2022-10-06T06:22:13.882Z,12.40
2022-10-06T06:22:45.925Z,12.41
2022-10-06T06:23:17.963Z,12.46
2022-10-06T06:23:50.504Z,12.45
2022-10-06T06:24:22.646Z,12.43
2022-10-06T06:24:54.787Z,12.48
2022-10-06T06:25:26.880Z,12.48
2022-10-06T06:26:04.140Z,12.51
2022-10-06T06:26:37.948Z,12.52
2022-10-06T06:27:10.052Z,12.45
2022-10-06T06:27:42.201Z,12.57
2022-10-06T06:28:14.271Z,12.52
2022-10-06T06:28:47.797Z,12.52
2022-10-06T06:29:19.918Z,12.53
2022-10-06T06:29:51.906Z,12.52
2022-10-06T06:30:24.448Z,12.50
2022-10-06T06:31:07.196Z,12.50
2022-10-06T06:31:43.875Z,12.50
2022-10-06T06:32:15.936Z,12.49
2022-10-06T06:32:47.939Z,12.40
2022-10-06T06:33:19.839Z,12.34
2022-10-06T06:33:55.098Z,12.33
2022-10-06T06:34:27.469Z,12.34
2022-10-06T06:34:59.547Z,12.31
2022-10-06T06:35:31.639Z,12.29
2022-10-06T06:36:28.071Z,12.28
2022-10-06T06:37:06.766Z,12.34
2022-10-06T06:37:40.551Z,12.42
2022-10-06T06:38:12.736Z,12.37
2022-10-06T06:38:52.099Z,12.38
2022-10-06T06:39:25.532Z,12.39
2022-10-06T06:39:57.668Z,12.40
2022-10-06T06:40:29.724Z,12.39
2022-10-06T06:41:01.713Z,12.41
2022-10-06T06:41:39.941Z,12.43
2022-10-06T06:42:11.932Z,12.42
2022-10-06T06:42:43.957Z,12.47
2022-10-06T06:43:16.027Z,12.50
2022-10-06T06:43:49.938Z,12.57
2022-10-06T06:44:22.306Z,12.60
2022-10-06T06:44:54.794Z,12.60
2022-10-06T06:45:26.850Z,12.60
2022-10-06T06:46:05.326Z,12.64
2022-10-06T06:46:38.737Z,12.67
2022-10-06T06:47:10.804Z,12.60
2022-10-06T06:47:42.837Z,12.61
2022-10-06T06:48:16.498Z,12.63
2022-10-06T06:48:50.028Z,12.72
2022-10-06T06:49:22.663Z,12.76
2022-10-06T06:49:55.129Z,12.77
2022-10-06T06:50:27.170Z,12.81
2022-10-06T06:50:59.226Z,12.80
2022-10-06T06:51:37.871Z,12.88
2022-10-06T06:52:10.075Z,12.96
2022-10-06T06:52:43.962Z,12.98
2022-10-06T06:53:16.498Z,13.05
2022-10-06T06:53:49.095Z,13.16
2022-10-06T06:54:21.246Z,13.26
2022-10-06T06:54:53.265Z,13.31
2022-10-06T06:55:25.364Z,13.35
2022-10-06T06:55:58.138Z,13.39
2022-10-06T06:56:38.893Z,13.46
2022-10-06T06:57:10.955Z,13.52
2022-10-06T06:57:42.942Z,13.58
2022-10-06T06:58:14.986Z,13.62
2022-10-06T06:58:48.102Z,13.71
2022-10-06T06:59:20.560Z,13.71
2022-10-06T06:59:52.624Z,13.81
2022-10-06T07:00:24.944Z,13.84
2022-10-06T07:01:13.913Z,13.99
2022-10-06T07:01:47.596Z,14.03
2022-10-06T07:02:19.751Z,14.10
2022-10-06T07:02:56.190Z,14.13
2022-10-06T07:03:52.574Z,14.22
2022-10-06T07:04:22.244Z,14.28
2022-10-06T07:04:54.368Z,14.34
2022-10-06T07:05:27.292Z,14.43
2022-10-06T07:06:12.258Z,14.50
2022-10-06T07:06:57.212Z,14.58
2022-10-06T07:07:29.459Z,14.65
2022-10-06T07:08:01.555Z,14.72
2022-10-06T07:08:33.727Z,14.69
2022-10-06T07:09:06.195Z,14.74
2022-10-06T07:09:41.291Z,14.82
2022-10-06T07:10:13.450Z,14.84
2022-10-06T07:10:46.964Z,14.92
2022-10-06T07:11:31.386Z,15.02
2022-10-06T07:12:03.629Z,15.03
2022-10-06T07:12:35.656Z,15.07
2022-10-06T07:13:07.848Z,15.11
2022-10-06T07:13:40.742Z,15.14
2022-10-06T07:14:12.961Z,15.19
2022-10-06T07:15:03.536Z,15.28
2022-10-06T07:15:54.318Z,15.34
2022-10-06T07:16:45.114Z,15.44
2022-10-06T07:17:35.839Z,15.53
2022-10-06T07:18:31.018Z,15.57
2022-10-06T07:19:24.975Z,15.67
2022-10-06T07:19:57.158Z,15.77
2022-10-06T07:20:47.611Z,15.82
2022-10-06T07:21:37.916Z,15.88
2022-10-06T07:22:28.555Z,15.93
2022-10-06T07:23:19.536Z,16.00
2022-10-06T07:24:11.207Z,16.09
2022-10-06T07:25:03.190Z,16.13
2022-10-06T07:25:35.087Z,16.18
2022-10-06T07:26:07.355Z,16.23
2022-10-06T07:26:39.387Z,16.25
2022-10-06T07:27:11.665Z,16.28
2022-10-06T07:27:46.180Z,16.31
2022-10-06T07:28:18.256Z,16.36
2022-10-06T07:28:50.321Z,16.36
2022-10-06T07:29:22.401Z,16.33
2022-10-06T07:29:56.454Z,16.38
2022-10-06T07:30:29.674Z,16.42
2022-10-06T07:31:01.967Z,16.48
2022-10-06T07:31:36.520Z,16.55
2022-10-06T07:32:08.572Z,16.58
2022-10-06T07:32:40.777Z,16.64
2022-10-06T07:33:14.764Z,16.70
2022-10-06T07:33:46.835Z,16.76
2022-10-06T07:34:18.997Z,16.78
2022-10-06T07:34:52.222Z,16.77
2022-10-06T07:35:25.809Z,16.83
2022-10-06T07:35:57.933Z,16.85
2022-10-06T07:36:33.090Z,16.92
2022-10-06T07:37:06.516Z,16.91
2022-10-06T07:37:39.017Z,16.98
2022-10-06T07:38:11.013Z,17.01
2022-10-06T07:38:43.187Z,17.10
2022-10-06T07:39:15.246Z,17.17
2022-10-06T07:39:49.794Z,17.24
2022-10-06T07:40:21.794Z,17.24
2022-10-06T07:41:17.707Z,17.30
2022-10-06T07:41:48.757Z,17.39
2022-10-06T07:42:21.367Z,17.44
2022-10-06T07:42:53.358Z,17.47
2022-10-06T07:43:25.463Z,17.52
2022-10-06T07:43:57.716Z,17.65
2022-10-06T07:44:29.779Z,17.68
2022-10-06T07:45:20.133Z,17.70
2022-10-06T07:45:52.301Z,17.75
2022-10-06T07:46:25.206Z,17.82
2022-10-06T07:46:57.251Z,17.85
2022-10-06T07:47:29.271Z,17.92
2022-10-06T07:48:02.157Z,17.95
2022-10-06T07:48:34.350Z,18.01
2022-10-06T07:49:06.509Z,18.08
2022-10-06T07:49:38.560Z,18.15
2022-10-06T07:50:13.158Z,18.18
2022-10-06T07:50:48.351Z,18.26
2022-10-06T07:51:20.570Z,18.30
2022-10-06T07:51:52.807Z,18.40
2022-10-06T07:52:29.048Z,18.48
2022-10-06T07:53:08.768Z,18.54
2022-10-06T07:53:41.318Z,18.62
2022-10-06T07:54:13.554Z,18.62
2022-10-06T07:54:45.690Z,18.68
2022-10-06T07:55:19.225Z,18.70
2022-10-06T07:55:52.122Z,18.79
2022-10-06T07:56:24.256Z,18.84
2022-10-06T07:56:56.654Z,18.92
2022-10-06T07:57:35.533Z,19.00
2022-10-06T07:58:18.986Z,19.07
2022-10-06T07:58:51.550Z,19.10
2022-10-06T07:59:23.688Z,19.18
2022-10-06T08:00:00.459Z,19.18
2022-10-06T08:00:34.807Z,19.17
2022-10-06T08:01:09.688Z,19.24
2022-10-06T08:01:44.200Z,19.29
2022-10-06T08:02:18.166Z,19.36
2022-10-06T08:02:50.316Z,19.39
2022-10-06T08:03:22.580Z,19.50
2022-10-06T08:03:54.696Z,19.55
2022-10-06T08:04:26.725Z,19.66
2022-10-06T08:04:58.756Z,19.70
2022-10-06T08:05:32.278Z,19.73
2022-10-06T08:06:04.971Z,19.80
2022-10-06T08:06:36.889Z,19.85
2022-10-06T08:07:10.660Z,19.88
2022-10-06T08:07:42.797Z,19.90
2022-10-06T08:08:15.783Z,19.93